sensor_id;sensor_type;location;lat;lon;timestamp;temperature;humidity
3705;DHT22;1868;48.918;9.438;2023-06-22T00:01:31;21.60;97.40
3705;DHT22;1868;48.918;9.438;2023-06-22T00:04:00;21.50;97.40
3705;DHT22;1868;48.918;9.438;2023-06-22T00:06:30;21.50;97.40
3705;DHT22;1868;48.918;9.438;2023-06-22T00:08:59;21.50;97.40
3705;DHT22;1868;48.918;9.438;2023-06-22T00:11:32;21.50;97.40
3705;DHT22;1868;48.918;9.438;2023-06-22T00:14:00;21.50;97.40
3705;DHT22;1868;48.918;9.438;2023-06-22T00:16:30;21.50;97.40
3705;DHT22;1868;48.918;9.438;2023-06-22T00:19:00;21.40;97.40
3705;DHT22;1868;48.918;9.438;2023-06-22T00:21:29;21.40;97.40
3705;DHT22;1868;48.918;9.438;2023-06-22T00:23:59;21.40;97.40
3705;DHT22;1868;48.918;9.438;2023-06-22T00:26:28;21.30;97.40
3705;DHT22;1868;48.918;9.438;2023-06-22T00:28:58;21.30;97.40
3705;DHT22;1868;48.918;9.438;2023-06-22T00:31:30;21.20;97.40
3705;DHT22;1868;48.918;9.438;2023-06-22T00:33:59;21.20;97.40
3705;DHT22;1868;48.918;9.438;2023-06-22T00:36:28;21.10;97.40
3705;DHT22;1868;48.918;9.438;2023-06-22T00:38:57;21.10;97.40
3705;DHT22;1868;48.918;9.438;2023-06-22T00:41:25;21.00;97.40
3705;DHT22;1868;48.918;9.438;2023-06-22T00:43:55;21.00;97.40
3705;DHT22;1868;48.918;9.438;2023-06-22T00:46:26;20.90;97.40
3705;DHT22;1868;48.918;9.438;2023-06-22T00:48:55;20.90;97.40
3705;DHT22;1868;48.918;9.438;2023-06-22T00:51:24;20.80;97.40
3705;DHT22;1868;48.918;9.438;2023-06-22T00:53:54;20.80;97.40
3705;DHT22;1868;48.918;9.438;2023-06-22T00:56:25;20.70;97.40
3705;DHT22;1868;48.918;9.438;2023-06-22T00:58:58;20.70;97.40
3705;DHT22;1868;48.918;9.438;2023-06-22T01:01:32;20.60;97.40
3705;DHT22;1868;48.918;9.438;2023-06-22T01:04:04;20.60;97.40
3705;DHT22;1868;48.918;9.438;2023-06-22T01:06:41;20.50;97.40
3705;DHT22;1868;48.918;9.438;2023-06-22T01:09:16;20.50;97.40
3705;DHT22;1868;48.918;9.438;2023-06-22T01:11:53;20.50;97.40
3705;DHT22;1868;48.918;9.438;2023-06-22T01:14:31;20.40;97.40
3705;DHT22;1868;48.918;9.438;2023-06-22T01:17:08;20.30;97.40
3705;DHT22;1868;48.918;9.438;2023-06-22T01:19:43;20.30;97.40
3705;DHT22;1868;48.918;9.438;2023-06-22T01:22:16;20.30;97.40
3705;DHT22;1868;48.918;9.438;2023-06-22T01:24:55;20.30;97.40
3705;DHT22;1868;48.918;9.438;2023-06-22T01:27:39;20.20;97.40
3705;DHT22;1868;48.918;9.438;2023-06-22T01:30:16;20.20;97.40
3705;DHT22;1868;48.918;9.438;2023-06-22T01:32:47;20.20;97.40
3705;DHT22;1868;48.918;9.438;2023-06-22T01:35:17;20.10;97.40
3705;DHT22;1868;48.918;9.438;2023-06-22T01:37:48;20.10;97.40
3705;DHT22;1868;48.918;9.438;2023-06-22T01:40:19;20.10;97.40
3705;DHT22;1868;48.918;9.438;2023-06-22T01:42:51;20.00;97.40
3705;DHT22;1868;48.918;9.438;2023-06-22T01:45:22;20.00;97.40
3705;DHT22;1868;48.918;9.438;2023-06-22T01:47:51;20.00;97.40
3705;DHT22;1868;48.918;9.438;2023-06-22T01:50:26;20.00;97.40
3705;DHT22;1868;48.918;9.438;2023-06-22T01:52:56;19.90;97.40
3705;DHT22;1868;48.918;9.438;2023-06-22T01:55:28;19.90;97.40
3705;DHT22;1868;48.918;9.438;2023-06-22T01:57:57;19.90;97.40
3705;DHT22;1868;48.918;9.438;2023-06-22T02:00:31;19.80;97.40
3705;DHT22;1868;48.918;9.438;2023-06-22T02:03:07;19.80;97.40
3705;DHT22;1868;48.918;9.438;2023-06-22T02:05:45;19.80;97.40
3705;DHT22;1868;48.918;9.438;2023-06-22T02:08:20;19.70;97.40
3705;DHT22;1868;48.918;9.438;2023-06-22T02:10:54;19.70;97.40
3705;DHT22;1868;48.918;9.438;2023-06-22T02:13:24;19.70;97.40
3705;DHT22;1868;48.918;9.438;2023-06-22T02:15:56;19.60;97.40
3705;DHT22;1868;48.918;9.438;2023-06-22T02:18:39;19.60;97.40
3705;DHT22;1868;48.918;9.438;2023-06-22T02:21:24;19.60;97.40
3705;DHT22;1868;48.918;9.438;2023-06-22T02:24:01;19.60;97.40
3705;DHT22;1868;48.918;9.438;2023-06-22T02:26:30;19.60;97.40
3705;DHT22;1868;48.918;9.438;2023-06-22T02:29:04;19.60;97.40
3705;DHT22;1868;48.918;9.438;2023-06-22T02:31:38;19.50;97.40
3705;DHT22;1868;48.918;9.438;2023-06-22T02:34:07;19.50;97.40
3705;DHT22;1868;48.918;9.438;2023-06-22T02:36:35;19.50;97.40
3705;DHT22;1868;48.918;9.438;2023-06-22T02:39:05;19.40;97.40
3705;DHT22;1868;48.918;9.438;2023-06-22T02:41:36;19.40;97.40
3705;DHT22;1868;48.918;9.438;2023-06-22T02:44:10;19.40;97.40
3705;DHT22;1868;48.918;9.438;2023-06-22T02:46:43;19.40;97.40
3705;DHT22;1868;48.918;9.438;2023-06-22T02:49:14;19.40;97.40
3705;DHT22;1868;48.918;9.438;2023-06-22T02:51:46;19.30;97.40
3705;DHT22;1868;48.918;9.438;2023-06-22T02:54:26;19.30;97.40
3705;DHT22;1868;48.918;9.438;2023-06-22T02:56:57;19.30;97.40
3705;DHT22;1868;48.918;9.438;2023-06-22T02:59:30;19.30;97.40
3705;DHT22;1868;48.918;9.438;2023-06-22T03:02:09;19.30;97.40
3705;DHT22;1868;48.918;9.438;2023-06-22T03:04:42;19.20;97.40
3705;DHT22;1868;48.918;9.438;2023-06-22T03:07:12;19.20;97.40
3705;DHT22;1868;48.918;9.438;2023-06-22T03:09:45;19.10;97.40
3705;DHT22;1868;48.918;9.438;2023-06-22T03:12:15;19.10;97.40
3705;DHT22;1868;48.918;9.438;2023-06-22T03:14:50;19.10;97.40
3705;DHT22;1868;48.918;9.438;2023-06-22T03:17:21;19.00;97.40
3705;DHT22;1868;48.918;9.438;2023-06-22T03:19:51;19.00;97.40
3705;DHT22;1868;48.918;9.438;2023-06-22T03:22:21;19.00;97.40
3705;DHT22;1868;48.918;9.438;2023-06-22T03:24:52;19.00;97.40
3705;DHT22;1868;48.918;9.438;2023-06-22T03:27:23;19.00;97.40
3705;DHT22;1868;48.918;9.438;2023-06-22T03:29:53;19.00;97.40
3705;DHT22;1868;48.918;9.438;2023-06-22T03:32:25;19.00;97.40
3705;DHT22;1868;48.918;9.438;2023-06-22T03:34:55;19.00;97.40
3705;DHT22;1868;48.918;9.438;2023-06-22T03:37:27;19.00;97.40
3705;DHT22;1868;48.918;9.438;2023-06-22T03:39:58;19.00;97.40
3705;DHT22;1868;48.918;9.438;2023-06-22T03:42:28;19.00;97.40
3705;DHT22;1868;48.918;9.438;2023-06-22T03:44:59;19.00;97.40
3705;DHT22;1868;48.918;9.438;2023-06-22T03:47:32;19.10;97.40
3705;DHT22;1868;48.918;9.438;2023-06-22T03:50:02;19.10;97.40
3705;DHT22;1868;48.918;9.438;2023-06-22T03:52:47;19.20;97.40
3705;DHT22;1868;48.918;9.438;2023-06-22T03:55:24;19.20;97.40
3705;DHT22;1868;48.918;9.438;2023-06-22T03:57:53;19.30;97.40
3705;DHT22;1868;48.918;9.438;2023-06-22T04:00:24;19.30;97.40
3705;DHT22;1868;48.918;9.438;2023-06-22T04:02:56;19.30;97.40
3705;DHT22;1868;48.918;9.438;2023-06-22T04:05:26;19.40;97.40
3705;DHT22;1868;48.918;9.438;2023-06-22T04:07:59;19.40;97.40
3705;DHT22;1868;48.918;9.438;2023-06-22T04:10:32;19.50;97.40
3705;DHT22;1868;48.918;9.438;2023-06-22T04:13:03;19.50;97.40
3705;DHT22;1868;48.918;9.438;2023-06-22T04:15:33;19.60;97.40
3705;DHT22;1868;48.918;9.438;2023-06-22T04:18:04;19.70;97.40
3705;DHT22;1868;48.918;9.438;2023-06-22T04:20:34;19.80;97.40
3705;DHT22;1868;48.918;9.438;2023-06-22T04:23:04;19.80;97.40
3705;DHT22;1868;48.918;9.438;2023-06-22T04:25:34;19.90;97.40
3705;DHT22;1868;48.918;9.438;2023-06-22T04:28:03;20.00;97.40
3705;DHT22;1868;48.918;9.438;2023-06-22T04:30:33;20.10;97.40
3705;DHT22;1868;48.918;9.438;2023-06-22T04:33:06;20.10;97.40
3705;DHT22;1868;48.918;9.438;2023-06-22T04:35:37;20.20;97.40
3705;DHT22;1868;48.918;9.438;2023-06-22T04:38:08;20.30;97.40
3705;DHT22;1868;48.918;9.438;2023-06-22T04:40:38;20.40;97.40
3705;DHT22;1868;48.918;9.438;2023-06-22T04:43:09;20.40;97.40
3705;DHT22;1868;48.918;9.438;2023-06-22T04:45:48;20.50;97.40
3705;DHT22;1868;48.918;9.438;2023-06-22T04:48:22;20.50;97.40
3705;DHT22;1868;48.918;9.438;2023-06-22T04:50:51;20.70;97.40
3705;DHT22;1868;48.918;9.438;2023-06-22T04:53:23;20.70;97.40
3705;DHT22;1868;48.918;9.438;2023-06-22T04:56:01;20.80;97.40
3705;DHT22;1868;48.918;9.438;2023-06-22T04:58:34;20.90;97.40
3705;DHT22;1868;48.918;9.438;2023-06-22T05:01:05;21.00;97.40
3705;DHT22;1868;48.918;9.438;2023-06-22T05:03:38;21.10;97.40
3705;DHT22;1868;48.918;9.438;2023-06-22T05:06:10;21.20;97.40
3705;DHT22;1868;48.918;9.438;2023-06-22T05:08:40;21.30;97.40
3705;DHT22;1868;48.918;9.438;2023-06-22T05:11:09;21.40;97.40
3705;DHT22;1868;48.918;9.438;2023-06-22T05:13:39;21.50;97.40
3705;DHT22;1868;48.918;9.438;2023-06-22T05:16:09;21.60;97.40
3705;DHT22;1868;48.918;9.438;2023-06-22T05:18:47;21.70;97.40
3705;DHT22;1868;48.918;9.438;2023-06-22T05:21:16;21.80;97.40
3705;DHT22;1868;48.918;9.438;2023-06-22T05:23:46;21.90;97.40
3705;DHT22;1868;48.918;9.438;2023-06-22T05:26:17;22.00;97.40
3705;DHT22;1868;48.918;9.438;2023-06-22T05:28:47;22.20;97.40
3705;DHT22;1868;48.918;9.438;2023-06-22T05:31:17;22.30;97.40
3705;DHT22;1868;48.918;9.438;2023-06-22T05:33:52;22.40;97.40
3705;DHT22;1868;48.918;9.438;2023-06-22T05:36:23;22.60;97.40
3705;DHT22;1868;48.918;9.438;2023-06-22T05:39:11;22.70;97.40
3705;DHT22;1868;48.918;9.438;2023-06-22T05:41:49;22.90;97.40
3705;DHT22;1868;48.918;9.438;2023-06-22T05:44:19;23.00;97.40
3705;DHT22;1868;48.918;9.438;2023-06-22T05:46:49;23.10;97.40
3705;DHT22;1868;48.918;9.438;2023-06-22T05:49:21;23.30;97.40
3705;DHT22;1868;48.918;9.438;2023-06-22T05:51:51;23.40;97.40
3705;DHT22;1868;48.918;9.438;2023-06-22T05:54:20;23.50;97.40
3705;DHT22;1868;48.918;9.438;2023-06-22T05:56:50;23.60;97.40
3705;DHT22;1868;48.918;9.438;2023-06-22T05:59:21;23.80;97.40
3705;DHT22;1868;48.918;9.438;2023-06-22T06:01:53;23.90;97.40
3705;DHT22;1868;48.918;9.438;2023-06-22T06:04:24;24.10;97.40
3705;DHT22;1868;48.918;9.438;2023-06-22T06:06:56;24.20;97.40
3705;DHT22;1868;48.918;9.438;2023-06-22T06:09:30;24.30;97.40
3705;DHT22;1868;48.918;9.438;2023-06-22T06:12:10;24.50;97.40
3705;DHT22;1868;48.918;9.438;2023-06-22T06:14:39;24.60;97.40
3705;DHT22;1868;48.918;9.438;2023-06-22T06:17:09;24.70;97.40
3705;DHT22;1868;48.918;9.438;2023-06-22T06:19:40;24.80;97.40
3705;DHT22;1868;48.918;9.438;2023-06-22T06:22:12;24.80;97.40
3705;DHT22;1868;48.918;9.438;2023-06-22T06:24:42;24.80;97.40
3705;DHT22;1868;48.918;9.438;2023-06-22T06:27:11;24.70;97.40
3705;DHT22;1868;48.918;9.438;2023-06-22T06:29:40;24.70;97.40
3705;DHT22;1868;48.918;9.438;2023-06-22T06:32:09;24.70;97.40
3705;DHT22;1868;48.918;9.438;2023-06-22T06:34:40;24.60;97.40
3705;DHT22;1868;48.918;9.438;2023-06-22T06:37:11;24.60;97.40
3705;DHT22;1868;48.918;9.438;2023-06-22T06:39:42;24.60;97.40
3705;DHT22;1868;48.918;9.438;2023-06-22T06:42:11;24.60;97.40
3705;DHT22;1868;48.918;9.438;2023-06-22T06:44:41;24.60;97.40
3705;DHT22;1868;48.918;9.438;2023-06-22T06:47:09;24.80;97.40
3705;DHT22;1868;48.918;9.438;2023-06-22T06:49:40;24.90;97.40
3705;DHT22;1868;48.918;9.438;2023-06-22T06:52:10;25.10;97.40
3705;DHT22;1868;48.918;9.438;2023-06-22T06:54:42;25.20;97.40
3705;DHT22;1868;48.918;9.438;2023-06-22T06:57:11;25.40;97.40
3705;DHT22;1868;48.918;9.438;2023-06-22T06:59:46;25.60;97.40
3705;DHT22;1868;48.918;9.438;2023-06-22T07:02:14;25.80;97.40
3705;DHT22;1868;48.918;9.438;2023-06-22T07:04:45;26.00;97.40
3705;DHT22;1868;48.918;9.438;2023-06-22T07:07:14;26.20;97.40
3705;DHT22;1868;48.918;9.438;2023-06-22T07:09:45;26.40;97.40
3705;DHT22;1868;48.918;9.438;2023-06-22T07:12:15;26.60;97.40
3705;DHT22;1868;48.918;9.438;2023-06-22T07:14:51;26.80;97.40
3705;DHT22;1868;48.918;9.438;2023-06-22T07:17:20;26.80;97.40
3705;DHT22;1868;48.918;9.438;2023-06-22T07:19:51;26.90;97.40
3705;DHT22;1868;48.918;9.438;2023-06-22T07:22:20;27.20;97.40
3705;DHT22;1868;48.918;9.438;2023-06-22T07:24:55;27.40;97.40
3705;DHT22;1868;48.918;9.438;2023-06-22T07:27:24;27.50;97.40
3705;DHT22;1868;48.918;9.438;2023-06-22T07:29:53;27.70;97.40
3705;DHT22;1868;48.918;9.438;2023-06-22T07:32:22;27.80;97.40
3705;DHT22;1868;48.918;9.438;2023-06-22T07:34:54;28.10;97.40
3705;DHT22;1868;48.918;9.438;2023-06-22T07:37:23;28.20;97.40
3705;DHT22;1868;48.918;9.438;2023-06-22T07:39:54;28.30;97.40
3705;DHT22;1868;48.918;9.438;2023-06-22T07:42:27;28.60;97.40
3705;DHT22;1868;48.918;9.438;2023-06-22T07:45:01;28.70;96.70
3705;DHT22;1868;48.918;9.438;2023-06-22T07:47:32;28.80;96.00
3705;DHT22;1868;48.918;9.438;2023-06-22T07:50:05;29.00;96.70
3705;DHT22;1868;48.918;9.438;2023-06-22T07:52:36;29.00;94.60
3705;DHT22;1868;48.918;9.438;2023-06-22T07:55:06;29.00;95.10
3705;DHT22;1868;48.918;9.438;2023-06-22T07:57:38;29.00;94.20
3705;DHT22;1868;48.918;9.438;2023-06-22T08:00:10;29.20;94.80
3705;DHT22;1868;48.918;9.438;2023-06-22T08:02:45;29.30;93.60
3705;DHT22;1868;48.918;9.438;2023-06-22T08:05:17;29.40;94.20
3705;DHT22;1868;48.918;9.438;2023-06-22T08:08:02;29.50;93.10
3705;DHT22;1868;48.918;9.438;2023-06-22T08:10:31;29.70;93.60
3705;DHT22;1868;48.918;9.438;2023-06-22T08:13:01;29.70;92.10
3705;DHT22;1868;48.918;9.438;2023-06-22T08:15:30;29.80;93.00
3705;DHT22;1868;48.918;9.438;2023-06-22T08:18:00;30.00;91.10
3705;DHT22;1868;48.918;9.438;2023-06-22T08:20:30;30.20;93.10
3705;DHT22;1868;48.918;9.438;2023-06-22T08:23:02;30.50;91.80
3705;DHT22;1868;48.918;9.438;2023-06-22T08:25:33;30.70;90.10
3705;DHT22;1868;48.918;9.438;2023-06-22T08:28:03;30.90;91.30
3705;DHT22;1868;48.918;9.438;2023-06-22T08:30:33;31.10;89.40
3705;DHT22;1868;48.918;9.438;2023-06-22T08:33:02;31.20;88.60
3705;DHT22;1868;48.918;9.438;2023-06-22T08:35:33;31.60;89.00
3705;DHT22;1868;48.918;9.438;2023-06-22T08:38:03;31.90;86.80
3705;DHT22;1868;48.918;9.438;2023-06-22T08:40:34;32.20;85.80
3705;DHT22;1868;48.918;9.438;2023-06-22T08:43:03;32.70;85.80
3705;DHT22;1868;48.918;9.438;2023-06-22T08:45:32;33.20;81.50
3705;DHT22;1868;48.918;9.438;2023-06-22T08:48:08;33.40;79.10
3705;DHT22;1868;48.918;9.438;2023-06-22T08:50:39;33.50;79.90
3705;DHT22;1868;48.918;9.438;2023-06-22T08:53:08;33.40;79.10
3705;DHT22;1868;48.918;9.438;2023-06-22T08:55:40;33.60;80.20
3705;DHT22;1868;48.918;9.438;2023-06-22T08:58:09;33.70;77.40
3705;DHT22;1868;48.918;9.438;2023-06-22T09:00:40;34.00;76.10
3705;DHT22;1868;48.918;9.438;2023-06-22T09:03:09;34.20;76.70
3705;DHT22;1868;48.918;9.438;2023-06-22T09:05:42;34.30;73.90
3705;DHT22;1868;48.918;9.438;2023-06-22T09:08:17;34.40;75.60
3705;DHT22;1868;48.918;9.438;2023-06-22T09:10:46;34.60;75.40
3705;DHT22;1868;48.918;9.438;2023-06-22T09:13:15;34.40;73.30
3705;DHT22;1868;48.918;9.438;2023-06-22T09:15:47;34.40;74.30
3705;DHT22;1868;48.918;9.438;2023-06-22T09:18:17;34.20;73.90
3705;DHT22;1868;48.918;9.438;2023-06-22T09:20:51;34.10;76.70
3705;DHT22;1868;48.918;9.438;2023-06-22T09:23:21;34.40;76.30
3705;DHT22;1868;48.918;9.438;2023-06-22T09:25:50;34.80;74.50
3705;DHT22;1868;48.918;9.438;2023-06-22T09:28:20;35.00;72.00
3705;DHT22;1868;48.918;9.438;2023-06-22T09:30:49;35.30;72.00
3705;DHT22;1868;48.918;9.438;2023-06-22T09:33:18;35.20;70.50
3705;DHT22;1868;48.918;9.438;2023-06-22T09:35:47;35.00;72.60
3705;DHT22;1868;48.918;9.438;2023-06-22T09:38:21;34.90;72.40
3705;DHT22;1868;48.918;9.438;2023-06-22T09:40:50;34.80;73.20
3705;DHT22;1868;48.918;9.438;2023-06-22T09:43:20;35.00;74.10
3705;DHT22;1868;48.918;9.438;2023-06-22T09:45:49;35.20;72.40
3705;DHT22;1868;48.918;9.438;2023-06-22T09:48:21;35.50;72.40
3705;DHT22;1868;48.918;9.438;2023-06-22T09:50:50;35.70;71.30
3705;DHT22;1868;48.918;9.438;2023-06-22T09:53:21;35.80;71.80
3705;DHT22;1868;48.918;9.438;2023-06-22T09:55:51;35.90;69.20
3705;DHT22;1868;48.918;9.438;2023-06-22T09:58:24;36.00;67.70
3705;DHT22;1868;48.918;9.438;2023-06-22T10:00:54;36.00;66.80
3705;DHT22;1868;48.918;9.438;2023-06-22T10:03:35;36.20;67.40
3705;DHT22;1868;48.918;9.438;2023-06-22T10:06:05;36.30;65.10
3705;DHT22;1868;48.918;9.438;2023-06-22T10:08:36;36.50;66.30
3705;DHT22;1868;48.918;9.438;2023-06-22T10:11:08;36.60;66.30
3705;DHT22;1868;48.918;9.438;2023-06-22T10:13:38;36.80;65.70
3705;DHT22;1868;48.918;9.438;2023-06-22T10:16:10;36.90;61.00
3705;DHT22;1868;48.918;9.438;2023-06-22T10:18:42;37.20;64.60
3705;DHT22;1868;48.918;9.438;2023-06-22T10:21:11;37.30;62.30
3705;DHT22;1868;48.918;9.438;2023-06-22T10:23:45;37.70;62.30
3705;DHT22;1868;48.918;9.438;2023-06-22T10:26:15;38.00;61.20
3705;DHT22;1868;48.918;9.438;2023-06-22T10:28:44;37.90;59.30
3705;DHT22;1868;48.918;9.438;2023-06-22T10:31:12;37.70;60.10
3705;DHT22;1868;48.918;9.438;2023-06-22T10:33:44;37.50;59.60
3705;DHT22;1868;48.918;9.438;2023-06-22T10:36:14;37.20;62.20
3705;DHT22;1868;48.918;9.438;2023-06-22T10:38:47;36.90;62.50
3705;DHT22;1868;48.918;9.438;2023-06-22T10:41:17;36.90;64.20
3705;DHT22;1868;48.918;9.438;2023-06-22T10:43:46;37.20;63.50
3705;DHT22;1868;48.918;9.438;2023-06-22T10:46:16;37.10;61.00
3705;DHT22;1868;48.918;9.438;2023-06-22T10:48:45;37.20;60.70
3705;DHT22;1868;48.918;9.438;2023-06-22T10:51:14;37.70;59.50
3705;DHT22;1868;48.918;9.438;2023-06-22T10:53:45;37.60;59.30
3705;DHT22;1868;48.918;9.438;2023-06-22T10:56:15;37.50;59.80
3705;DHT22;1868;48.918;9.438;2023-06-22T10:58:46;37.50;60.10
3705;DHT22;1868;48.918;9.438;2023-06-22T11:01:16;38.00;60.30
3705;DHT22;1868;48.918;9.438;2023-06-22T11:04:01;38.00;58.00
3705;DHT22;1868;48.918;9.438;2023-06-22T11:06:31;37.90;57.00
3705;DHT22;1868;48.918;9.438;2023-06-22T11:09:05;37.60;58.00
3705;DHT22;1868;48.918;9.438;2023-06-22T11:11:37;37.40;59.90
3705;DHT22;1868;48.918;9.438;2023-06-22T11:14:07;37.20;61.60
3705;DHT22;1868;48.918;9.438;2023-06-22T11:16:39;37.00;63.10
3705;DHT22;1868;48.918;9.438;2023-06-22T11:19:11;36.80;62.30
3705;DHT22;1868;48.918;9.438;2023-06-22T11:21:43;36.70;62.50
3705;DHT22;1868;48.918;9.438;2023-06-22T11:24:16;36.60;61.40
3705;DHT22;1868;48.918;9.438;2023-06-22T11:26:45;36.60;61.80
3705;DHT22;1868;48.918;9.438;2023-06-22T11:29:14;36.60;63.10
3705;DHT22;1868;48.918;9.438;2023-06-22T11:32:02;36.60;61.60
3705;DHT22;1868;48.918;9.438;2023-06-22T11:34:39;36.70;62.50
3705;DHT22;1868;48.918;9.438;2023-06-22T11:37:11;36.70;61.00
3705;DHT22;1868;48.918;9.438;2023-06-22T11:39:50;36.70;62.70
3705;DHT22;1868;48.918;9.438;2023-06-22T11:42:27;36.60;60.30
3705;DHT22;1868;48.918;9.438;2023-06-22T11:45:31;36.60;61.60
3705;DHT22;1868;48.918;9.438;2023-06-22T11:48:04;36.90;62.20
3705;DHT22;1868;48.918;9.438;2023-06-22T11:50:35;37.10;59.20
3705;DHT22;1868;48.918;9.438;2023-06-22T11:53:15;37.10;59.30
3705;DHT22;1868;48.918;9.438;2023-06-22T11:56:06;37.20;60.90
3705;DHT22;1868;48.918;9.438;2023-06-22T11:58:40;37.30;60.90
3705;DHT22;1868;48.918;9.438;2023-06-22T12:01:10;37.20;59.50
3705;DHT22;1868;48.918;9.438;2023-06-22T12:03:45;37.10;59.50
3705;DHT22;1868;48.918;9.438;2023-06-22T12:06:19;36.80;61.60
3705;DHT22;1868;48.918;9.438;2023-06-22T12:08:50;36.70;62.30
3705;DHT22;1868;48.918;9.438;2023-06-22T12:11:22;36.50;63.70
3705;DHT22;1868;48.918;9.438;2023-06-22T12:13:54;36.00;60.10
3705;DHT22;1868;48.918;9.438;2023-06-22T12:16:23;35.70;64.60
3705;DHT22;1868;48.918;9.438;2023-06-22T12:18:53;35.50;64.60
3705;DHT22;1868;48.918;9.438;2023-06-22T12:21:26;35.50;65.50
3705;DHT22;1868;48.918;9.438;2023-06-22T12:24:08;35.50;68.70
3705;DHT22;1868;48.918;9.438;2023-06-22T12:26:49;35.40;65.70
3705;DHT22;1868;48.918;9.438;2023-06-22T12:29:23;35.30;61.80
3705;DHT22;1868;48.918;9.438;2023-06-22T12:32:02;35.20;65.70
3705;DHT22;1868;48.918;9.438;2023-06-22T12:34:34;35.10;64.80
3705;DHT22;1868;48.918;9.438;2023-06-22T12:47:11;34.80;72.00
3705;DHT22;1868;48.918;9.438;2023-06-22T12:49:42;34.50;73.30
3705;DHT22;1868;48.918;9.438;2023-06-22T12:52:12;34.40;73.70
3705;DHT22;1868;48.918;9.438;2023-06-22T12:54:42;34.30;74.60
3705;DHT22;1868;48.918;9.438;2023-06-22T12:57:22;34.10;74.30
3705;DHT22;1868;48.918;9.438;2023-06-22T12:59:55;33.90;75.80
3705;DHT22;1868;48.918;9.438;2023-06-22T13:02:29;33.70;76.30
3705;DHT22;1868;48.918;9.438;2023-06-22T13:04:58;33.50;76.70
3705;DHT22;1868;48.918;9.438;2023-06-22T13:07:32;33.40;78.90
3705;DHT22;1868;48.918;9.438;2023-06-22T13:10:14;33.30;80.00
3705;DHT22;1868;48.918;9.438;2023-06-22T13:12:57;33.20;80.60
3705;DHT22;1868;48.918;9.438;2023-06-22T13:15:28;33.20;80.60
3705;DHT22;1868;48.918;9.438;2023-06-22T13:18:02;33.10;81.00
3705;DHT22;1868;48.918;9.438;2023-06-22T13:20:32;33.10;81.90
3705;DHT22;1868;48.918;9.438;2023-06-22T13:23:00;33.00;82.10
3705;DHT22;1868;48.918;9.438;2023-06-22T13:25:31;33.00;81.90
3705;DHT22;1868;48.918;9.438;2023-06-22T13:28:24;32.90;83.20
3705;DHT22;1868;48.918;9.438;2023-06-22T13:31:05;32.80;83.20
3705;DHT22;1868;48.918;9.438;2023-06-22T13:33:48;32.80;86.80
3705;DHT22;1868;48.918;9.438;2023-06-22T13:36:55;32.80;85.80
3705;DHT22;1868;48.918;9.438;2023-06-22T13:39:57;32.90;85.80
3705;DHT22;1868;48.918;9.438;2023-06-22T13:42:39;33.00;84.70
3705;DHT22;1868;48.918;9.438;2023-06-22T13:45:10;33.30;84.30
3705;DHT22;1868;48.918;9.438;2023-06-22T13:47:41;33.50;84.00
3705;DHT22;1868;48.918;9.438;2023-06-22T13:50:12;33.70;84.30
3705;DHT22;1868;48.918;9.438;2023-06-22T13:52:42;33.80;84.90
3705;DHT22;1868;48.918;9.438;2023-06-22T13:55:13;34.00;82.80
3705;DHT22;1868;48.918;9.438;2023-06-22T13:57:43;34.00;82.30
3705;DHT22;1868;48.918;9.438;2023-06-22T14:00:14;34.00;82.30
3705;DHT22;1868;48.918;9.438;2023-06-22T14:02:49;34.00;81.20
3705;DHT22;1868;48.918;9.438;2023-06-22T14:05:21;34.00;81.40
3705;DHT22;1868;48.918;9.438;2023-06-22T14:07:53;34.00;81.70
3705;DHT22;1868;48.918;9.438;2023-06-22T14:10:27;34.00;81.90
3705;DHT22;1868;48.918;9.438;2023-06-22T14:13:02;33.90;81.70
3705;DHT22;1868;48.918;9.438;2023-06-22T14:15:38;34.00;80.40
3705;DHT22;1868;48.918;9.438;2023-06-22T14:18:10;34.10;80.00
3705;DHT22;1868;48.918;9.438;2023-06-22T14:20:49;34.20;78.40
3705;DHT22;1868;48.918;9.438;2023-06-22T14:23:26;34.30;78.20
3705;DHT22;1868;48.918;9.438;2023-06-22T14:26:29;34.50;77.60
3705;DHT22;1868;48.918;9.438;2023-06-22T14:29:16;34.70;79.70
3705;DHT22;1868;48.918;9.438;2023-06-22T14:31:56;34.90;77.80
3705;DHT22;1868;48.918;9.438;2023-06-22T14:34:30;35.20;78.40
3705;DHT22;1868;48.918;9.438;2023-06-22T14:37:02;35.40;78.00
3705;DHT22;1868;48.918;9.438;2023-06-22T14:39:36;35.80;76.70
3705;DHT22;1868;48.918;9.438;2023-06-22T14:42:05;35.90;73.90
3705;DHT22;1868;48.918;9.438;2023-06-22T14:44:35;35.90;74.10
3705;DHT22;1868;48.918;9.438;2023-06-22T14:47:05;35.80;75.40
3705;DHT22;1868;48.918;9.438;2023-06-22T14:49:36;35.70;75.80
3705;DHT22;1868;48.918;9.438;2023-06-22T14:52:09;35.60;72.20
3705;DHT22;1868;48.918;9.438;2023-06-22T14:54:41;35.60;72.20
3705;DHT22;1868;48.918;9.438;2023-06-22T14:57:10;35.70;72.40
3705;DHT22;1868;48.918;9.438;2023-06-22T14:59:40;35.80;72.20
3705;DHT22;1868;48.918;9.438;2023-06-22T15:02:12;36.10;71.50
3705;DHT22;1868;48.918;9.438;2023-06-22T15:04:45;36.30;72.80
3705;DHT22;1868;48.918;9.438;2023-06-22T15:07:17;36.50;70.40
3705;DHT22;1868;48.918;9.438;2023-06-22T15:09:46;36.60;70.00
3705;DHT22;1868;48.918;9.438;2023-06-22T15:12:16;36.70;66.60
3705;DHT22;1868;48.918;9.438;2023-06-22T15:14:45;36.70;59.60
3705;DHT22;1868;48.918;9.438;2023-06-22T15:17:15;36.70;57.80
3705;DHT22;1868;48.918;9.438;2023-06-22T15:19:45;36.50;58.30
3705;DHT22;1868;48.918;9.438;2023-06-22T15:22:23;36.30;59.00
3705;DHT22;1868;48.918;9.438;2023-06-22T15:24:53;36.00;56.60
3705;DHT22;1868;48.918;9.438;2023-06-22T15:27:27;35.80;56.70
3705;DHT22;1868;48.918;9.438;2023-06-22T15:29:57;35.80;59.20
3705;DHT22;1868;48.918;9.438;2023-06-22T15:32:26;35.80;59.90
3705;DHT22;1868;48.918;9.438;2023-06-22T15:34:57;35.90;60.30
3705;DHT22;1868;48.918;9.438;2023-06-22T15:37:30;35.90;60.90
3705;DHT22;1868;48.918;9.438;2023-06-22T15:40:00;35.80;57.70
3705;DHT22;1868;48.918;9.438;2023-06-22T15:42:30;35.70;58.10
3705;DHT22;1868;48.918;9.438;2023-06-22T15:44:59;35.60;58.60
3705;DHT22;1868;48.918;9.438;2023-06-22T15:47:28;35.50;55.10
3705;DHT22;1868;48.918;9.438;2023-06-22T15:49:58;35.50;54.50
3705;DHT22;1868;48.918;9.438;2023-06-22T15:52:31;35.60;53.70
3705;DHT22;1868;48.918;9.438;2023-06-22T15:55:00;35.50;56.40
3705;DHT22;1868;48.918;9.438;2023-06-22T15:57:30;35.30;52.30
3705;DHT22;1868;48.918;9.438;2023-06-22T16:00:03;35.20;53.70
3705;DHT22;1868;48.918;9.438;2023-06-22T16:02:36;35.00;51.90
3705;DHT22;1868;48.918;9.438;2023-06-22T16:05:08;34.80;52.50
3705;DHT22;1868;48.918;9.438;2023-06-22T16:07:39;34.70;52.90
3705;DHT22;1868;48.918;9.438;2023-06-22T16:10:10;34.60;51.70
3705;DHT22;1868;48.918;9.438;2023-06-22T16:12:42;34.50;51.60
3705;DHT22;1868;48.918;9.438;2023-06-22T16:15:14;34.40;52.60
3705;DHT22;1868;48.918;9.438;2023-06-22T16:17:49;34.30;52.60
3705;DHT22;1868;48.918;9.438;2023-06-22T16:23:46;34.10;52.80
3705;DHT22;1868;48.918;9.438;2023-06-22T16:27:33;34.00;53.40
3705;DHT22;1868;48.918;9.438;2023-06-22T16:32:52;33.70;55.70
3705;DHT22;1868;48.918;9.438;2023-06-22T16:35:26;33.50;55.50
3705;DHT22;1868;48.918;9.438;2023-06-22T16:37:57;33.40;56.30
3705;DHT22;1868;48.918;9.438;2023-06-22T16:40:34;33.20;55.80
3705;DHT22;1868;48.918;9.438;2023-06-22T16:43:04;33.00;56.00
3705;DHT22;1868;48.918;9.438;2023-06-22T16:45:36;32.90;56.10
3705;DHT22;1868;48.918;9.438;2023-06-22T16:48:10;32.80;56.40
3705;DHT22;1868;48.918;9.438;2023-06-22T16:50:42;32.70;57.50
3705;DHT22;1868;48.918;9.438;2023-06-22T16:53:16;32.50;57.50